createdAt,value
2018-06-13T00:00:33.019Z,0.00
2018-06-13T00:01:33.033Z,0.00
2018-06-13T00:03:25.979Z,0.00
2018-06-13T00:04:25.977Z,0.00
2018-06-13T00:06:18.897Z,0.00
2018-06-13T00:07:18.910Z,0.00
2018-06-13T00:09:11.852Z,0.00
2018-06-13T00:10:11.851Z,0.00
2018-06-13T00:12:04.792Z,0.00
2018-06-13T00:13:04.792Z,0.00
2018-06-13T00:14:57.718Z,0.00
2018-06-13T00:15:57.724Z,0.00
2018-06-13T00:17:50.692Z,0.00
2018-06-13T00:18:50.671Z,0.00
2018-06-13T00:20:43.608Z,0.00
2018-06-13T00:21:43.611Z,0.00
2018-06-13T00:23:36.559Z,0.00
2018-06-13T00:24:36.555Z,0.00
2018-06-13T00:26:29.478Z,0.00
2018-06-13T00:27:29.493Z,0.00
2018-06-13T00:29:22.440Z,0.00
2018-06-13T00:30:22.438Z,0.00
2018-06-13T00:32:15.376Z,0.00
2018-06-13T00:33:15.371Z,0.00
2018-06-13T00:35:08.335Z,0.00
2018-06-13T00:36:08.316Z,0.00
2018-06-13T00:38:01.256Z,0.00
2018-06-13T00:39:01.256Z,0.00
2018-06-13T00:40:54.178Z,0.00
2018-06-13T00:41:54.190Z,0.00
2018-06-13T00:43:47.137Z,0.00
2018-06-13T00:44:47.125Z,0.00
2018-06-13T00:46:40.054Z,0.00
2018-06-13T00:47:40.065Z,0.00
2018-06-13T00:49:33.010Z,0.00
2018-06-13T00:50:33.005Z,0.00
2018-06-13T00:52:25.956Z,0.00
2018-06-13T00:53:25.949Z,0.00
2018-06-13T00:55:18.872Z,0.00
2018-06-13T00:56:18.892Z,0.00
2018-06-13T00:58:11.837Z,0.00
2018-06-13T00:59:11.830Z,0.00
2018-06-13T01:01:04.753Z,0.00
2018-06-13T01:02:04.772Z,0.00
2018-06-13T01:03:57.720Z,0.00
2018-06-13T01:04:57.713Z,0.00
2018-06-13T01:06:50.633Z,0.00
2018-06-13T01:07:50.652Z,0.00
2018-06-13T01:09:43.596Z,0.00
2018-06-13T01:10:43.590Z,0.00
2018-06-13T01:12:36.536Z,0.00
2018-06-13T01:13:36.526Z,0.00
2018-06-13T01:15:29.456Z,0.00
2018-06-13T01:16:29.464Z,0.00
2018-06-13T01:18:22.422Z,0.00
2018-06-13T01:19:22.412Z,0.00
2018-06-13T01:21:15.334Z,0.00
2018-06-13T01:22:15.347Z,0.00
2018-06-13T01:24:08.297Z,0.00
2018-06-13T01:25:08.289Z,0.00
2018-06-13T01:27:01.210Z,0.00
2018-06-13T01:28:01.224Z,0.00
2018-06-13T01:29:54.170Z,0.00
2018-06-13T01:30:54.165Z,0.00
2018-06-13T01:32:47.107Z,0.00
2018-06-13T01:33:47.104Z,0.00
2018-06-13T01:35:40.027Z,0.00
2018-06-13T01:36:40.041Z,0.00
2018-06-13T01:38:32.984Z,0.00
2018-06-13T01:39:32.986Z,0.00
2018-06-13T01:41:25.908Z,0.00
2018-06-13T01:42:25.920Z,0.00
2018-06-13T01:44:18.872Z,0.00
2018-06-13T01:45:18.865Z,0.00
2018-06-13T01:47:11.786Z,0.00
2018-06-13T01:48:11.803Z,0.00
2018-06-13T02:17:00.780Z,0.00
2018-06-13T02:18:00.773Z,0.00
2018-06-13T02:19:53.701Z,0.00
2018-06-13T02:20:53.690Z,0.00
2018-06-13T02:22:46.618Z,0.00
2018-06-13T02:23:46.625Z,0.00
2018-06-13T02:25:39.558Z,0.00
2018-06-13T02:26:39.550Z,0.00
2018-06-13T02:28:32.491Z,0.00
2018-06-13T02:29:32.481Z,0.00
2018-06-13T02:31:25.401Z,0.00
2018-06-13T02:32:25.416Z,0.00
2018-06-13T02:34:18.356Z,0.00
2018-06-13T02:35:18.360Z,0.00
2018-06-13T02:37:11.278Z,0.00
2018-06-13T02:38:11.293Z,0.00
2018-06-13T02:40:04.237Z,0.00
2018-06-13T02:41:04.230Z,0.00
2018-06-13T02:42:57.151Z,0.00
2018-06-13T02:43:57.165Z,0.00
2018-06-13T02:45:50.116Z,0.00
2018-06-13T02:46:50.104Z,0.00
2018-06-13T02:48:43.047Z,0.00
2018-06-13T02:49:43.037Z,0.00
2018-06-13T02:51:35.971Z,0.00
2018-06-13T02:52:35.986Z,0.00
2018-06-13T02:54:28.924Z,0.00
2018-06-13T02:55:28.916Z,0.00
2018-06-13T02:57:21.850Z,0.00
2018-06-13T02:58:21.866Z,0.00
2018-06-13T03:00:14.814Z,0.00
2018-06-13T03:01:14.807Z,0.00
2018-06-13T03:03:07.735Z,0.00
2018-06-13T03:04:07.754Z,0.00
2018-06-13T03:06:00.707Z,0.00
2018-06-13T03:07:00.696Z,0.00
2018-06-13T03:08:53.645Z,0.00
2018-06-13T03:09:53.637Z,0.00
2018-06-13T03:11:46.569Z,0.00
2018-06-13T03:12:46.581Z,0.00
2018-06-13T03:14:39.526Z,0.00
2018-06-13T03:15:39.517Z,0.00
2018-06-13T03:17:32.448Z,0.00
2018-06-13T03:18:32.463Z,0.00
2018-06-13T03:20:25.413Z,0.00
2018-06-13T03:21:25.399Z,0.00
2018-06-13T03:23:18.331Z,0.00
2018-06-13T03:24:18.350Z,0.00
2018-06-13T03:26:11.287Z,0.00
2018-06-13T03:27:11.284Z,0.00
2018-06-13T03:29:04.231Z,0.00
2018-06-13T03:30:04.226Z,0.00
2018-06-13T03:31:57.160Z,0.00
2018-06-13T03:32:57.173Z,0.00
2018-06-13T03:34:50.112Z,0.00
2018-06-13T03:35:50.108Z,0.00
2018-06-13T03:37:43.034Z,0.00
2018-06-13T03:38:43.049Z,0.00
2018-06-13T03:40:35.993Z,0.00
2018-06-13T03:41:35.991Z,0.00
2018-06-13T03:43:28.914Z,0.00
2018-06-13T03:44:28.928Z,0.00
2018-06-13T03:46:21.874Z,5.63
2018-06-13T03:47:21.868Z,5.63
2018-06-13T03:49:14.794Z,5.63
2018-06-13T03:50:14.809Z,5.63
2018-06-13T03:52:07.764Z,5.63
2018-06-13T03:53:07.761Z,5.63
2018-06-13T03:55:00.706Z,5.63
2018-06-13T03:56:00.708Z,5.63
2018-06-13T03:57:53.627Z,5.63
2018-06-13T03:58:53.645Z,5.63
2018-06-13T04:00:46.597Z,5.63
2018-06-13T04:01:46.645Z,5.63
2018-06-13T04:03:39.515Z,11.25
2018-06-13T04:04:39.530Z,11.25
2018-06-13T04:06:32.481Z,11.25
2018-06-13T04:07:32.475Z,11.25
2018-06-13T04:09:25.400Z,11.25
2018-06-13T04:10:25.418Z,11.25
2018-06-13T04:12:18.361Z,11.25
2018-06-13T04:13:18.353Z,11.25
2018-06-13T04:15:11.302Z,11.25
2018-06-13T04:16:11.295Z,11.25
2018-06-13T04:18:04.217Z,11.25
2018-06-13T04:19:04.233Z,11.25
2018-06-13T04:20:57.183Z,11.25
2018-06-13T04:21:57.178Z,11.25
2018-06-13T04:23:50.099Z,11.25
2018-06-13T04:24:50.117Z,11.25
2018-06-13T04:26:43.061Z,11.25
2018-06-13T04:27:43.059Z,11.25
2018-06-13T04:29:35.988Z,11.25
2018-06-13T04:30:35.994Z,16.88
2018-06-13T04:32:28.944Z,16.88
2018-06-13T04:33:28.941Z,16.88
2018-06-13T04:35:21.882Z,16.88
2018-06-13T04:36:21.877Z,16.88
2018-06-13T04:38:14.800Z,16.88
2018-06-13T04:39:14.816Z,16.88
2018-06-13T04:41:07.762Z,22.50
2018-06-13T04:42:07.753Z,22.50
2018-06-13T04:44:00.703Z,22.50
2018-06-13T04:45:00.712Z,22.50
2018-06-13T04:46:53.655Z,22.50
2018-06-13T04:47:53.647Z,22.50
2018-06-13T04:49:46.577Z,22.50
2018-06-13T04:50:46.590Z,22.50
2018-06-13T04:52:39.535Z,28.13
2018-06-13T04:53:39.528Z,33.75
2018-06-13T04:55:32.497Z,33.75
2018-06-13T04:56:32.481Z,33.75
2018-06-13T04:58:25.462Z,39.38
2018-06-13T04:59:25.422Z,39.38
2018-06-13T05:01:18.436Z,39.38
2018-06-13T05:02:18.434Z,39.38
2018-06-13T05:04:11.382Z,39.38
2018-06-13T05:05:11.393Z,45.00
2018-06-13T05:07:04.350Z,50.63
2018-06-13T05:08:04.336Z,50.63
2018-06-13T05:09:57.256Z,45.00
2018-06-13T05:10:57.273Z,50.63
2018-06-13T05:12:50.263Z,56.25
2018-06-13T05:13:50.258Z,67.50
2018-06-13T05:15:43.236Z,73.13
2018-06-13T05:16:43.218Z,67.50
2018-06-13T05:18:36.141Z,61.88
2018-06-13T05:19:36.157Z,61.88
2018-06-13T05:21:29.100Z,61.88
2018-06-13T05:22:29.095Z,67.50
2018-06-13T05:24:22.070Z,73.13
2018-06-13T05:25:22.083Z,73.13
2018-06-13T05:27:15.045Z,61.88
2018-06-13T05:28:15.038Z,61.88
2018-06-13T05:30:08.019Z,61.88
2018-06-13T05:31:08.026Z,61.88
2018-06-13T05:33:00.983Z,67.50
2018-06-13T05:34:00.977Z,73.13
2018-06-13T05:35:53.924Z,140.63
2018-06-13T05:36:53.920Z,180.00
2018-06-13T05:38:46.862Z,146.25
2018-06-13T05:39:46.876Z,123.75
2018-06-13T05:41:39.824Z,196.88
2018-06-13T05:42:39.819Z,151.88
2018-06-13T05:44:32.744Z,129.38
2018-06-13T05:45:32.759Z,135.00
2018-06-13T05:47:25.707Z,129.38
2018-06-13T05:48:25.706Z,135.00
2018-06-13T05:50:18.630Z,157.50
2018-06-13T05:51:18.648Z,151.88
2018-06-13T05:53:11.591Z,168.75
2018-06-13T05:54:11.588Z,146.25
2018-06-13T05:56:04.540Z,140.63
2018-06-13T05:57:04.541Z,140.63
2018-06-13T05:58:57.469Z,129.38
2018-06-13T05:59:57.480Z,129.38
2018-06-13T06:01:50.428Z,129.38
2018-06-13T06:02:50.428Z,129.38
2018-06-13T06:04:43.353Z,146.25
2018-06-13T06:05:43.369Z,163.13
2018-06-13T06:07:36.323Z,163.13
2018-06-13T06:08:36.320Z,157.50
2018-06-13T06:10:29.382Z,168.75
2018-06-13T06:11:29.265Z,163.13
2018-06-13T06:13:22.216Z,180.00
2018-06-13T06:14:22.213Z,191.25
2018-06-13T06:16:15.163Z,236.25
2018-06-13T06:17:15.160Z,270.00
2018-06-13T06:19:08.088Z,219.38
2018-06-13T06:20:08.102Z,241.88
2018-06-13T06:22:01.053Z,258.75
2018-06-13T06:23:01.061Z,315.00
2018-06-13T06:24:53.981Z,292.50
2018-06-13T06:25:53.997Z,270.00
2018-06-13T06:27:46.948Z,427.50
2018-06-13T06:28:46.942Z,213.75
2018-06-13T06:30:39.871Z,168.75
2018-06-13T06:31:39.886Z,140.63
2018-06-13T06:33:32.835Z,112.50
2018-06-13T06:34:32.833Z,95.63
2018-06-13T06:36:25.781Z,73.13
2018-06-13T06:37:25.783Z,78.75
2018-06-13T06:39:18.714Z,78.75
2018-06-13T06:40:18.737Z,73.13
2018-06-13T06:42:11.692Z,90.00
2018-06-13T06:43:11.680Z,84.38
2018-06-13T06:45:04.610Z,90.00
2018-06-13T06:46:04.626Z,101.25
2018-06-13T06:47:57.580Z,106.88
2018-06-13T06:48:57.577Z,112.50
2018-06-13T06:50:50.509Z,123.75
2018-06-13T06:51:50.533Z,146.25
2018-06-13T06:53:43.477Z,157.50
2018-06-13T06:54:43.475Z,151.88
2018-06-13T06:56:36.432Z,84.38
2018-06-13T06:57:36.436Z,73.13
2018-06-13T06:59:29.368Z,101.25
2018-06-13T07:00:29.387Z,118.13
2018-06-13T07:02:22.349Z,135.00
2018-06-13T07:03:22.342Z,140.63
2018-06-13T07:05:15.274Z,146.25
2018-06-13T07:06:15.288Z,135.00
2018-06-13T07:08:08.246Z,140.63
2018-06-13T07:09:08.248Z,168.75
2018-06-13T07:11:01.177Z,191.25
2018-06-13T07:12:01.193Z,185.63
2018-06-13T07:13:54.141Z,185.63
2018-06-13T07:14:54.141Z,185.63
2018-06-13T07:16:47.090Z,174.38
2018-06-13T07:17:47.090Z,180.00
2018-06-13T07:19:40.025Z,163.13
2018-06-13T07:20:40.042Z,174.38
2018-06-13T07:22:32.989Z,185.63
2018-06-13T07:23:32.981Z,202.50
2018-06-13T07:25:25.911Z,196.88
2018-06-13T07:26:25.926Z,191.25
2018-06-13T07:28:18.878Z,168.75
2018-06-13T07:29:18.876Z,157.50
2018-06-13T07:31:11.808Z,185.63
2018-06-13T07:32:11.828Z,196.88
2018-06-13T07:34:04.777Z,185.63
2018-06-13T07:35:04.774Z,180.00
2018-06-13T07:36:57.723Z,168.75
2018-06-13T07:37:57.726Z,157.50
2018-06-13T07:39:50.700Z,129.38
2018-06-13T07:40:50.705Z,123.75
2018-06-13T07:42:43.666Z,123.75
2018-06-13T07:43:43.659Z,135.00
2018-06-13T07:45:36.599Z,123.75
2018-06-13T07:46:36.617Z,118.13
2018-06-13T07:48:29.574Z,151.88
2018-06-13T07:49:29.573Z,140.63
2018-06-13T07:51:22.511Z,140.63
2018-06-13T07:52:22.527Z,135.00
2018-06-13T07:54:15.487Z,112.50
2018-06-13T07:55:15.549Z,106.88
2018-06-13T07:57:08.443Z,95.63
2018-06-13T07:58:08.436Z,106.88
2018-06-13T08:00:01.366Z,106.88
2018-06-13T08:01:01.381Z,101.25
2018-06-13T08:02:54.334Z,123.75
2018-06-13T08:03:54.329Z,135.00
2018-06-13T08:05:47.261Z,123.75
2018-06-13T08:06:47.277Z,112.50
2018-06-13T08:08:40.389Z,118.13
2018-06-13T08:09:40.221Z,140.63
2018-06-13T08:11:33.646Z,163.13
2018-06-13T08:12:33.663Z,180.00
2018-06-13T08:14:26.664Z,230.63
2018-06-13T08:15:26.661Z,247.50
2018-06-13T08:17:19.615Z,264.38
2018-06-13T08:18:19.678Z,247.50
2018-06-13T08:20:12.549Z,230.63
2018-06-13T08:21:12.570Z,247.50
2018-06-13T08:23:05.525Z,230.63
2018-06-13T08:24:05.536Z,225.00
2018-06-13T08:25:58.573Z,202.50
2018-06-13T08:26:58.470Z,191.25
2018-06-13T08:28:51.491Z,180.00
2018-06-13T08:29:51.416Z,185.63
2018-06-13T08:31:44.443Z,208.13
2018-06-13T08:32:44.359Z,202.50
2018-06-13T08:34:37.503Z,196.88
2018-06-13T08:35:37.378Z,202.50
2018-06-13T08:37:30.484Z,191.25
2018-06-13T08:38:30.487Z,191.25
2018-06-13T08:40:23.485Z,163.13
2018-06-13T08:41:23.670Z,168.75
2018-06-13T08:43:16.860Z,163.13
2018-06-13T08:44:16.754Z,151.88
2018-06-13T08:46:09.809Z,129.38
2018-06-13T08:47:09.816Z,123.75
2018-06-13T08:49:02.762Z,146.25
2018-06-13T08:50:02.761Z,163.13
2018-06-13T08:51:55.703Z,185.63
2018-06-13T08:52:55.710Z,191.25
2018-06-13T08:54:48.707Z,191.25
2018-06-13T08:55:48.714Z,191.25
2018-06-13T08:57:41.668Z,185.63
2018-06-13T08:58:41.658Z,185.63
2018-06-13T09:00:34.730Z,185.63
2018-06-13T09:01:36.542Z,191.25
2018-06-13T09:03:28.649Z,174.38
2018-06-13T09:04:27.640Z,185.63
2018-06-13T09:06:20.553Z,213.75
2018-06-13T09:07:20.578Z,225.00
2018-06-13T09:09:13.630Z,225.00
2018-06-13T09:10:13.494Z,219.38
2018-06-13T09:12:06.413Z,196.88
2018-06-13T09:13:06.458Z,185.63
2018-06-13T09:14:59.447Z,191.25
2018-06-13T09:15:59.413Z,185.63
2018-06-13T09:17:52.383Z,174.38
2018-06-13T09:18:52.323Z,174.38
2018-06-13T09:20:45.273Z,151.88
2018-06-13T09:21:45.303Z,146.25
2018-06-13T09:23:38.364Z,146.25
2018-06-13T09:24:38.206Z,151.88
2018-06-13T09:26:31.180Z,157.50
2018-06-13T09:27:31.140Z,163.13
2018-06-13T09:29:24.093Z,163.13
2018-06-13T09:30:24.091Z,168.75
2018-06-13T09:32:17.023Z,174.38
2018-06-13T09:33:17.048Z,163.13
2018-06-13T09:35:09.990Z,174.38
2018-06-13T09:36:09.991Z,180.00
2018-06-13T09:38:02.954Z,191.25
2018-06-13T09:39:02.938Z,196.88
2018-06-13T09:40:55.869Z,202.50
2018-06-13T09:41:55.889Z,208.13
2018-06-13T09:43:48.845Z,219.38
2018-06-13T09:44:48.844Z,219.38
2018-06-13T09:46:48.916Z,236.25
2018-06-13T09:47:41.787Z,253.13
2018-06-13T09:49:34.750Z,270.00
2018-06-13T09:50:34.743Z,270.00
2018-06-13T09:52:27.680Z,236.25
2018-06-13T09:53:27.692Z,258.75
2018-06-13T09:55:20.645Z,258.75
2018-06-13T09:56:20.646Z,219.38
2018-06-13T09:58:13.609Z,196.88
2018-06-13T09:59:13.596Z,202.50
2018-06-13T10:01:06.529Z,219.38
2018-06-13T10:02:06.574Z,230.63
2018-06-13T10:03:59.503Z,236.25
2018-06-13T10:04:59.497Z,247.50
2018-06-13T10:06:52.434Z,253.13
2018-06-13T10:07:52.447Z,253.13
2018-06-13T10:09:45.402Z,258.75
2018-06-13T10:10:45.399Z,253.13
2018-06-13T10:12:38.329Z,253.13
2018-06-13T10:13:38.352Z,253.13
2018-06-13T10:15:31.461Z,247.50
2018-06-13T10:16:31.379Z,241.88
2018-06-13T10:18:24.396Z,241.88
2018-06-13T10:19:24.364Z,241.88
2018-06-13T10:21:17.232Z,236.25
2018-06-13T10:22:17.375Z,241.88
2018-06-13T10:24:10.267Z,247.50
2018-06-13T10:25:10.228Z,241.88
2018-06-13T10:27:03.142Z,247.50
2018-06-13T10:28:03.204Z,247.50
2018-06-13T10:29:56.178Z,258.75
2018-06-13T10:30:56.116Z,258.75
2018-06-13T10:32:49.062Z,264.38
2018-06-13T10:33:49.113Z,264.38
2018-06-13T10:35:42.090Z,258.75
2018-06-13T10:36:42.044Z,253.13
2018-06-13T10:38:34.972Z,258.75
2018-06-13T10:39:34.984Z,253.13
2018-06-13T10:41:27.995Z,275.63
2018-06-13T10:42:27.961Z,264.38
2018-06-13T10:44:20.937Z,264.38
2018-06-13T10:45:20.915Z,264.38
2018-06-13T10:47:13.852Z,264.38
2018-06-13T10:48:13.803Z,258.75
2018-06-13T10:50:06.756Z,241.88
2018-06-13T10:51:06.755Z,241.88
2018-06-13T10:52:59.688Z,236.25
2018-06-13T10:53:59.706Z,236.25
2018-06-13T10:55:52.666Z,241.88
2018-06-13T10:56:52.664Z,230.63
2018-06-13T10:58:45.600Z,225.00
2018-06-13T10:59:45.616Z,225.00
2018-06-13T11:01:38.574Z,225.00
2018-06-13T11:02:38.570Z,213.75
2018-06-13T11:04:31.526Z,202.50
2018-06-13T11:05:31.529Z,202.50
2018-06-13T11:07:24.464Z,213.75
2018-06-13T11:08:24.481Z,213.75
2018-06-13T11:10:17.435Z,219.38
2018-06-13T11:11:17.437Z,219.38
2018-06-13T11:13:10.393Z,208.13
2018-06-13T11:14:10.387Z,202.50
2018-06-13T11:16:03.353Z,208.13
2018-06-13T11:17:03.338Z,208.13
2018-06-13T11:18:56.286Z,247.50
2018-06-13T11:19:56.300Z,236.25
2018-06-13T11:21:49.272Z,241.88
2018-06-13T11:22:49.268Z,247.50
2018-06-13T11:24:42.225Z,247.50
2018-06-13T11:25:42.224Z,241.88
2018-06-13T11:27:35.155Z,241.88
2018-06-13T11:28:35.174Z,241.88
2018-06-13T11:30:28.132Z,241.88
2018-06-13T11:31:28.139Z,241.88
2018-06-13T11:33:21.056Z,230.63
2018-06-13T11:34:21.077Z,213.75
2018-06-13T11:36:14.033Z,202.50
2018-06-13T11:37:14.031Z,225.00
2018-06-13T11:39:06.967Z,241.88
2018-06-13T11:40:06.985Z,241.88
2018-06-13T11:41:59.944Z,219.38
2018-06-13T11:42:59.944Z,213.75
2018-06-13T11:44:52.902Z,196.88
2018-06-13T11:45:52.899Z,191.25
2018-06-13T11:47:45.836Z,180.00
2018-06-13T11:48:45.857Z,180.00
2018-06-13T11:50:38.805Z,180.00
2018-06-13T11:51:38.808Z,185.63
2018-06-13T11:53:31.795Z,196.88
2018-06-13T11:54:31.766Z,202.50
2018-06-13T11:56:24.721Z,219.38
2018-06-13T11:57:24.755Z,225.00
2018-06-13T11:59:17.659Z,230.63
2018-06-13T12:00:17.681Z,236.25
2018-06-13T12:02:10.636Z,241.88
2018-06-13T12:03:10.630Z,241.88
2018-06-13T12:05:03.590Z,241.88
2018-06-13T12:06:03.629Z,241.88
2018-06-13T12:07:56.527Z,247.50
2018-06-13T12:08:56.539Z,258.75
2018-06-13T12:10:49.526Z,247.50
2018-06-13T12:11:49.496Z,292.50
2018-06-13T12:13:42.432Z,241.88
2018-06-13T12:14:42.455Z,241.88
2018-06-13T12:16:35.416Z,236.25
2018-06-13T12:17:35.411Z,258.75
2018-06-13T12:19:28.349Z,247.50
2018-06-13T12:20:28.370Z,225.00
2018-06-13T12:22:21.324Z,365.63
2018-06-13T12:23:21.325Z,371.25
2018-06-13T12:25:14.282Z,264.38
2018-06-13T12:26:14.281Z,298.13
2018-06-13T12:28:07.221Z,264.38
2018-06-13T12:29:07.237Z,270.00
2018-06-13T12:31:00.201Z,258.75
2018-06-13T12:32:00.198Z,270.00
2018-06-13T12:33:53.136Z,247.50
2018-06-13T12:34:53.157Z,241.88
2018-06-13T12:36:46.115Z,208.13
2018-06-13T12:37:46.114Z,202.50
2018-06-13T12:39:39.050Z,236.25
2018-06-13T12:40:39.072Z,202.50
2018-06-13T12:42:32.022Z,180.00
2018-06-13T12:43:32.023Z,174.38
2018-06-13T12:45:24.988Z,146.25
2018-06-13T12:46:24.981Z,135.00
2018-06-13T12:48:17.913Z,106.88
2018-06-13T12:49:17.930Z,101.25
2018-06-13T12:51:10.886Z,78.75
2018-06-13T12:52:10.887Z,73.13
2018-06-13T12:54:03.825Z,73.13
2018-06-13T12:55:03.842Z,73.13
2018-06-13T12:56:56.792Z,78.75
2018-06-13T12:57:56.795Z,78.75
2018-06-13T12:59:49.822Z,73.13
2018-06-13T13:00:49.843Z,73.13
2018-06-13T13:02:42.902Z,78.75
2018-06-13T13:03:42.891Z,78.75
2018-06-13T13:05:35.948Z,84.38
2018-06-13T13:06:35.949Z,95.63
2018-06-13T13:08:28.877Z,118.13
2018-06-13T13:09:28.900Z,129.38
2018-06-13T13:11:21.849Z,146.25
2018-06-13T13:12:21.847Z,157.50
2018-06-13T13:14:14.779Z,174.38
2018-06-13T13:15:14.793Z,180.00
2018-06-13T13:17:07.750Z,185.63
2018-06-13T13:18:07.748Z,185.63
2018-06-13T13:20:00.696Z,185.63
2018-06-13T13:21:00.703Z,180.00
2018-06-13T13:22:53.658Z,168.75
2018-06-13T13:23:53.653Z,168.75
2018-06-13T13:25:46.612Z,157.50
2018-06-13T13:26:46.612Z,236.25
2018-06-13T13:28:39.546Z,163.13
2018-06-13T13:29:39.555Z,185.63
2018-06-13T13:31:32.512Z,151.88
2018-06-13T13:32:32.512Z,241.88
2018-06-13T13:34:25.442Z,163.13
2018-06-13T13:35:25.457Z,230.63
2018-06-13T13:37:18.426Z,208.13
2018-06-13T13:38:18.425Z,208.13
2018-06-13T13:40:11.363Z,202.50
2018-06-13T13:41:11.379Z,202.50
2018-06-13T13:43:04.330Z,202.50
2018-06-13T13:44:04.330Z,196.88
2018-06-13T13:45:57.310Z,208.13
2018-06-13T13:46:57.282Z,146.25
2018-06-13T13:48:50.223Z,90.00
2018-06-13T13:49:50.234Z,202.50
2018-06-13T13:51:43.189Z,168.75
2018-06-13T13:52:43.189Z,90.00
2018-06-13T13:54:36.123Z,225.00
2018-06-13T13:55:36.142Z,241.88
2018-06-13T13:57:29.107Z,163.13
2018-06-13T13:58:29.107Z,241.88
2018-06-13T14:00:22.045Z,168.75
2018-06-13T14:01:22.062Z,163.13
2018-06-13T14:03:15.021Z,163.13
2018-06-13T14:04:15.013Z,140.63
2018-06-13T14:06:07.966Z,123.75
2018-06-13T14:07:07.965Z,118.13
2018-06-13T14:09:00.902Z,112.50
2018-06-13T14:10:00.917Z,118.13
2018-06-13T14:11:53.868Z,123.75
2018-06-13T14:12:53.870Z,129.38
2018-06-13T14:14:46.811Z,135.00
2018-06-13T14:15:46.825Z,140.63
2018-06-13T14:17:39.798Z,140.63
2018-06-13T14:18:39.785Z,146.25
2018-06-13T14:20:32.784Z,157.50
2018-06-13T14:21:32.794Z,163.13
2018-06-13T14:23:25.854Z,174.38
2018-06-13T14:24:25.852Z,180.00
2018-06-13T14:26:18.809Z,180.00
2018-06-13T14:27:18.805Z,185.63
2018-06-13T14:29:11.746Z,185.63
2018-06-13T14:30:11.760Z,180.00
2018-06-13T14:32:04.720Z,163.13
2018-06-13T14:33:04.717Z,163.13
2018-06-13T14:34:57.651Z,163.13
2018-06-13T14:35:57.720Z,163.13
2018-06-13T14:37:50.630Z,146.25
2018-06-13T14:38:50.626Z,151.88
2018-06-13T14:40:43.556Z,151.88
2018-06-13T14:41:43.570Z,151.88
2018-06-13T14:43:36.531Z,157.50
2018-06-13T14:44:36.529Z,163.13
2018-06-13T14:46:29.480Z,168.75
2018-06-13T14:47:29.476Z,185.63
2018-06-13T14:49:22.416Z,180.00
2018-06-13T14:50:22.431Z,185.63
2018-06-13T14:52:15.386Z,180.00
2018-06-13T14:53:15.381Z,168.75
2018-06-13T14:55:08.320Z,168.75
2018-06-13T14:56:08.336Z,163.13
2018-06-13T14:58:01.295Z,157.50
2018-06-13T14:59:01.299Z,157.50
2018-06-13T15:00:54.220Z,151.88
2018-06-13T15:01:54.268Z,151.88
2018-06-13T15:03:47.200Z,157.50
2018-06-13T15:04:47.194Z,157.50
2018-06-13T15:06:40.143Z,157.50
2018-06-13T15:07:40.144Z,157.50
2018-06-13T15:09:33.083Z,157.50
2018-06-13T15:10:33.097Z,157.50
2018-06-13T15:12:26.052Z,146.25
2018-06-13T15:13:26.076Z,146.25
2018-06-13T15:15:18.976Z,140.63
2018-06-13T15:16:18.998Z,146.25
2018-06-13T15:18:11.949Z,146.25
2018-06-13T15:19:11.948Z,146.25
2018-06-13T15:21:04.881Z,146.25
2018-06-13T15:22:04.897Z,146.25
2018-06-13T15:23:57.852Z,157.50
2018-06-13T15:24:57.850Z,157.50
2018-06-13T15:26:50.817Z,157.50
2018-06-13T15:27:50.801Z,157.50
2018-06-13T15:29:43.735Z,168.75
2018-06-13T15:30:43.754Z,163.13
2018-06-13T15:32:36.709Z,219.38
2018-06-13T15:33:36.705Z,151.88
2018-06-13T15:35:29.647Z,146.25
2018-06-13T15:36:29.666Z,140.63
2018-06-13T15:38:22.612Z,140.63
2018-06-13T15:39:22.609Z,140.63
2018-06-13T15:41:15.548Z,129.38
2018-06-13T15:42:15.563Z,129.38
2018-06-13T15:44:08.524Z,118.13
2018-06-13T15:45:08.516Z,112.50
2018-06-13T15:47:01.475Z,106.88
2018-06-13T15:48:01.467Z,106.88
2018-06-13T15:49:54.402Z,106.88
2018-06-13T15:50:54.420Z,101.25
2018-06-13T15:52:47.383Z,95.63
2018-06-13T15:53:47.371Z,90.00
2018-06-13T15:55:40.311Z,78.75
2018-06-13T15:56:40.327Z,73.13
2018-06-13T15:58:33.279Z,67.50
2018-06-13T15:59:33.276Z,67.50
2018-06-13T16:01:26.211Z,73.13
2018-06-13T16:02:26.228Z,73.13
2018-06-13T16:04:19.179Z,78.75
2018-06-13T16:05:19.182Z,84.38
2018-06-13T16:07:12.143Z,90.00
2018-06-13T16:08:12.139Z,90.00
2018-06-13T16:10:05.080Z,84.38
2018-06-13T16:11:05.095Z,84.38
2018-06-13T16:12:58.050Z,84.38
2018-06-13T16:13:58.046Z,84.38
2018-06-13T16:15:50.984Z,90.00
2018-06-13T16:16:50.999Z,90.00
2018-06-13T16:18:43.960Z,90.00
2018-06-13T16:19:43.958Z,95.63
2018-06-13T16:21:36.891Z,95.63
2018-06-13T16:22:36.911Z,101.25
2018-06-13T16:24:29.863Z,101.25
2018-06-13T16:25:29.865Z,106.88
2018-06-13T16:27:22.817Z,106.88
2018-06-13T16:28:22.815Z,106.88
2018-06-13T16:30:15.745Z,106.88
2018-06-13T16:31:15.759Z,112.50
2018-06-13T16:33:08.720Z,123.75
2018-06-13T16:34:08.714Z,118.13
2018-06-13T16:36:01.649Z,123.75
2018-06-13T16:37:01.667Z,140.63
2018-06-13T16:38:54.617Z,123.75
2018-06-13T16:39:54.615Z,140.63
2018-06-13T16:41:47.555Z,106.88
2018-06-13T16:42:47.571Z,106.88
2018-06-13T16:44:40.522Z,101.25
2018-06-13T16:45:40.517Z,95.63
2018-06-13T16:47:33.475Z,90.00
2018-06-13T16:48:33.524Z,84.38
2018-06-13T16:50:26.408Z,84.38
2018-06-13T16:51:26.422Z,78.75
2018-06-13T16:53:19.378Z,73.13
2018-06-13T16:54:19.378Z,73.13
2018-06-13T16:56:12.309Z,73.13
2018-06-13T16:57:12.328Z,67.50
2018-06-13T16:59:05.330Z,61.88
2018-06-13T17:00:05.276Z,56.25
2018-06-13T17:01:58.214Z,50.63
2018-06-13T17:02:58.232Z,45.00
2018-06-13T17:04:51.183Z,45.00
2018-06-13T17:05:51.178Z,45.00
2018-06-13T17:07:44.152Z,39.38
2018-06-13T17:08:44.127Z,39.38
2018-06-13T17:10:37.060Z,39.38
2018-06-13T17:11:37.078Z,33.75
2018-06-13T17:13:30.034Z,33.75
2018-06-13T17:14:30.028Z,33.75
2018-06-13T17:16:22.959Z,33.75
2018-06-13T17:17:22.977Z,33.75
2018-06-13T17:19:15.930Z,39.38
2018-06-13T17:20:15.929Z,39.38
2018-06-13T17:22:08.855Z,39.38
2018-06-13T17:23:08.873Z,39.38
2018-06-13T17:25:01.830Z,39.38
2018-06-13T17:26:01.825Z,39.38
2018-06-13T17:27:54.775Z,39.38
2018-06-13T17:28:54.770Z,39.38
2018-06-13T17:30:47.703Z,39.38
2018-06-13T17:31:47.723Z,45.00
2018-06-13T17:33:40.668Z,45.00
2018-06-13T17:34:40.670Z,45.00
2018-06-13T17:36:33.603Z,45.00
2018-06-13T17:37:33.616Z,45.00
2018-06-13T17:39:26.573Z,50.63
2018-06-13T17:40:26.567Z,50.63
2018-06-13T17:42:19.495Z,50.63
2018-06-13T17:43:19.512Z,50.63
2018-06-13T17:45:12.460Z,50.63
2018-06-13T17:46:12.465Z,50.63
2018-06-13T17:48:05.413Z,50.63
2018-06-13T17:49:05.411Z,50.63
2018-06-13T17:50:58.336Z,45.00
2018-06-13T17:51:58.355Z,45.00
2018-06-13T17:53:51.309Z,45.00
2018-06-13T17:54:51.306Z,45.00
2018-06-13T17:56:44.232Z,45.00
2018-06-13T17:57:44.251Z,45.00
2018-06-13T17:59:37.210Z,45.00
2018-06-13T18:00:37.206Z,45.00
2018-06-13T18:02:30.136Z,45.00
2018-06-13T18:03:30.154Z,45.00
2018-06-13T18:05:23.105Z,39.38
2018-06-13T18:06:23.102Z,39.38
2018-06-13T18:08:16.052Z,45.00
2018-06-13T18:09:16.049Z,45.00
2018-06-13T18:11:08.985Z,45.00
2018-06-13T18:12:09.001Z,45.00
2018-06-13T18:14:01.946Z,39.38
2018-06-13T18:15:01.948Z,39.38
2018-06-13T18:16:54.885Z,39.38
2018-06-13T18:17:54.901Z,39.38
2018-06-13T18:19:47.864Z,39.38
2018-06-13T18:20:47.850Z,39.38
2018-06-13T18:22:40.781Z,39.38
2018-06-13T18:23:40.798Z,39.38
2018-06-13T18:25:33.757Z,39.38
2018-06-13T18:26:33.748Z,39.38
2018-06-13T18:28:26.698Z,39.38
2018-06-13T18:29:26.706Z,39.38
2018-06-13T18:31:19.631Z,39.38
2018-06-13T18:32:19.644Z,33.75
2018-06-13T18:34:12.641Z,33.75
2018-06-13T18:35:12.598Z,33.75
2018-06-13T18:37:05.528Z,33.75
2018-06-13T18:38:05.545Z,33.75
2018-06-13T18:39:58.492Z,33.75
2018-06-13T18:40:58.489Z,33.75
2018-06-13T18:42:51.419Z,28.13
2018-06-13T18:43:51.434Z,28.13
2018-06-13T18:45:44.384Z,28.13
2018-06-13T18:46:44.382Z,28.13
2018-06-13T18:48:37.331Z,28.13